Chacarita, Costa Rica
Current Conditions -  °F | °C
As of 4:00 AM on Sunday 26 Oct 2014 (Local Time) from MROC Reporting Station
Scattered Clouds Scattered Clouds  
Wind Chill: 66°   Ceiling: Unl
Heat Index: 66°   Visibility: 6mi
Dew Point: 64°   Wind: 3mph
Humidity: 94%   Direction: 50°NE
Pressure: 29.98"   Gusts: NA
Location:  9.99°N, 84.78°W
Report Text: MROC 261000Z 05003KT 9999 SCT020 19/18 A2998 NOSIG
Loading
Personal Weather Stations






























Interactive Weather Map
Tropical Storm Tracking
New forecast layout! Learn more

10-Day Weather Forecast

Advertisements
Track Severe Weather on mobile